SWA3199 KDEN-KMSY
Flight info
| Callsign | SWA3199 |
|---|---|
| Flight time | 2h 14m |
| Altitude | 39000 |
| Route | EPKEE7 DUUZE Q150 EXHAS GCK SWB LSU AWDAD1 |
| Aircraft | B737/M-SADE2E3GIJ4RWZ/LB1D1 |
Departure
| Time | 2026-05-07 20:37 |
|---|---|
| Airport | Denver International Airport (KDEN) |
Arrival
| Time | 2026-05-07 22:52 |
|---|---|
| Airport | Louis Armstrong New Orleans International Airport (KMSY) |
| Time | Latitude | Longitude | Altitude | Speed | Heading |
|---|---|---|---|---|---|
| 2026-05-07 19:52 | 39.86255 | -104.67255 | 5376 ft | 0 kts | 360° |
| 2026-05-07 20:25 | 39.86244 | -104.67255 | 5373 ft | 4 kts | 360° |
| 2026-05-07 20:25 | 39.86216 | -104.67255 | 5373 ft | 4 kts | 360° |
| 2026-05-07 20:26 | 39.86189 | -104.67255 | 5373 ft | 4 kts | 360° |
| 2026-05-07 20:26 | 39.86174 | -104.67255 | 5373 ft | 0 kts | 360° |
| 2026-05-07 20:30 | 39.86176 | -104.67256 | 5373 ft | 1 kts | 347° |
| 2026-05-07 20:31 | 39.86178 | -104.67263 | 5373 ft | 1 kts | 290° |
| 2026-05-07 20:31 | 39.86171 | -104.67270 | 5374 ft | 2 kts | 223° |
| 2026-05-07 20:31 | 39.86153 | -104.67291 | 5373 ft | 4 kts | 223° |
| 2026-05-07 20:31 | 39.86137 | -104.67315 | 5373 ft | 4 kts | 238° |
| 2026-05-07 20:32 | 39.86132 | -104.67348 | 5376 ft | 4 kts | 266° |
| 2026-05-07 20:32 | 39.86132 | -104.67386 | 5374 ft | 5 kts | 269° |
| 2026-05-07 20:32 | 39.86132 | -104.67430 | 5376 ft | 5 kts | 271° |
| 2026-05-07 20:32 | 39.86132 | -104.67476 | 5374 ft | 6 kts | 271° |
| 2026-05-07 20:33 | 39.86133 | -104.67543 | 5375 ft | 9 kts | 271° |
| 2026-05-07 20:33 | 39.86134 | -104.67636 | 5373 ft | 11 kts | 271° |
| 2026-05-07 20:33 | 39.86134 | -104.67749 | 5376 ft | 14 kts | 270° |
| 2026-05-07 20:33 | 39.86135 | -104.67882 | 5376 ft | 16 kts | 270° |
| 2026-05-07 20:34 | 39.86136 | -104.68034 | 5375 ft | 19 kts | 271° |
| 2026-05-07 20:34 | 39.86138 | -104.68213 | 5370 ft | 20 kts | 270° |
| 2026-05-07 20:34 | 39.86138 | -104.68392 | 5366 ft | 19 kts | 270° |
| 2026-05-07 20:34 | 39.86201 | -104.68508 | 5365 ft | 19 kts | 359° |
| 2026-05-07 20:35 | 39.86335 | -104.68506 | 5363 ft | 19 kts | 0° |
| 2026-05-07 20:35 | 39.86428 | -104.68555 | 5362 ft | 12 kts | 272° |
| 2026-05-07 20:35 | 39.86428 | -104.68576 | 5362 ft | 0 kts | 271° |
| 2026-05-07 20:35 | 39.86428 | -104.68589 | 5362 ft | 5 kts | 271° |
| 2026-05-07 20:36 | 39.86429 | -104.68659 | 5362 ft | 11 kts | 270° |
| 2026-05-07 20:36 | 39.86456 | -104.68720 | 5362 ft | 9 kts | 1° |
| 2026-05-07 20:36 | 39.86682 | -104.68716 | 5363 ft | 68 kts | 0° |
| 2026-05-07 20:36 | 39.87392 | -104.68707 | 5360 ft | 137 kts | 0° |
| 2026-05-07 20:37 | 39.88530 | -104.68683 | 5471 ft | 180 kts | 352° |
| 2026-05-07 20:37 | 39.89836 | -104.68655 | 6139 ft | 193 kts | 353° |
| 2026-05-07 20:37 | 39.91197 | -104.68465 | 6817 ft | 209 kts | 12° |
| 2026-05-07 20:37 | 39.92510 | -104.67480 | 7355 ft | 232 kts | 39° |
| 2026-05-07 20:38 | 39.93401 | -104.65638 | 7926 ft | 250 kts | 71° |
| 2026-05-07 20:38 | 39.93506 | -104.63327 | 8513 ft | 268 kts | 100° |
| 2026-05-07 20:38 | 39.92952 | -104.61006 | 9067 ft | 283 kts | 111° |
| 2026-05-07 20:38 | 39.92213 | -104.58587 | 9829 ft | 292 kts | 113° |
| 2026-05-07 20:39 | 39.91361 | -104.56225 | 10480 ft | 301 kts | 116° |
| 2026-05-07 20:39 | 39.90393 | -104.53746 | 11064 ft | 314 kts | 120° |
| 2026-05-07 20:39 | 39.89216 | -104.51407 | 11942 ft | 314 kts | 130° |
| 2026-05-07 20:39 | 39.87704 | -104.49357 | 12622 ft | 323 kts | 139° |
| 2026-05-07 20:40 | 39.86128 | -104.47186 | 13270 ft | 333 kts | 128° |
| 2026-05-07 20:40 | 39.84947 | -104.44685 | 14374 ft | 324 kts | 115° |
| 2026-05-07 20:40 | 39.84242 | -104.42336 | 15410 ft | 313 kts | 108° |
| 2026-05-07 20:40 | 39.83582 | -104.39834 | 16339 ft | 309 kts | 110° |
| 2026-05-07 20:41 | 39.82773 | -104.37192 | 16843 ft | 323 kts | 117° |
| 2026-05-07 20:41 | 39.81520 | -104.34636 | 17017 ft | 347 kts | 127° |
| 2026-05-07 20:41 | 39.80569 | -104.32914 | 17137 ft | 362 kts | 126° |
| 2026-05-07 20:41 | 39.79129 | -104.30134 | 17320 ft | 385 kts | 123° |
| 2026-05-07 20:42 | 39.77690 | -104.27086 | 17519 ft | 406 kts | 121° |
| 2026-05-07 20:42 | 39.76289 | -104.23896 | 18057 ft | 415 kts | 120° |
| 2026-05-07 20:42 | 39.74891 | -104.20600 | 18746 ft | 418 kts | 120° |
| 2026-05-07 20:42 | 39.73483 | -104.17264 | 19292 ft | 425 kts | 120° |
| 2026-05-07 20:43 | 39.72074 | -104.13898 | 19848 ft | 430 kts | 117° |
| 2026-05-07 20:43 | 39.70807 | -104.10345 | 20448 ft | 435 kts | 114° |
| 2026-05-07 20:43 | 39.69620 | -104.06852 | 21028 ft | 439 kts | 114° |
| 2026-05-07 20:43 | 39.68611 | -104.03910 | 21494 ft | 443 kts | 115° |
| 2026-05-07 20:44 | 39.67309 | -104.00194 | 22084 ft | 448 kts | 115° |
| 2026-05-07 20:44 | 39.66005 | -103.96519 | 22657 ft | 453 kts | 115° |
| 2026-05-07 20:44 | 39.64620 | -103.92810 | 23208 ft | 458 kts | 118° |
| 2026-05-07 20:44 | 39.63266 | -103.89518 | 23669 ft | 462 kts | 119° |
| 2026-05-07 20:45 | 39.61717 | -103.85834 | 24116 ft | 467 kts | 119° |
| 2026-05-07 20:45 | 39.60161 | -103.82101 | 24529 ft | 473 kts | 118° |
| 2026-05-07 20:45 | 39.58798 | -103.78571 | 24921 ft | 477 kts | 112° |
| 2026-05-07 20:45 | 39.57583 | -103.74565 | 25409 ft | 479 kts | 109° |
| 2026-05-07 20:46 | 39.56455 | -103.70490 | 25879 ft | 482 kts | 108° |
| 2026-05-07 20:46 | 39.55360 | -103.66423 | 26298 ft | 486 kts | 108° |
| 2026-05-07 20:46 | 39.54238 | -103.62268 | 26711 ft | 490 kts | 108° |
| 2026-05-07 20:46 | 39.53210 | -103.58524 | 27092 ft | 493 kts | 108° |
| 2026-05-07 20:47 | 39.52025 | -103.54277 | 27511 ft | 497 kts | 108° |
| 2026-05-07 20:47 | 39.50837 | -103.50071 | 27919 ft | 500 kts | 108° |
| 2026-05-07 20:47 | 39.50185 | -103.47778 | 28152 ft | 502 kts | 109° |
| 2026-05-07 20:47 | 39.49003 | -103.43637 | 28513 ft | 506 kts | 109° |
| 2026-05-07 20:48 | 39.47790 | -103.39394 | 28874 ft | 510 kts | 108° |
| 2026-05-07 20:48 | 39.46615 | -103.35292 | 29231 ft | 511 kts | 109° |
| 2026-05-07 20:48 | 39.45477 | -103.31324 | 29652 ft | 512 kts | 109° |
| 2026-05-07 20:48 | 39.44252 | -103.27055 | 30013 ft | 515 kts | 108° |
| 2026-05-07 20:49 | 39.42998 | -103.22690 | 30287 ft | 518 kts | 108° |
| 2026-05-07 20:49 | 39.41739 | -103.18312 | 30593 ft | 520 kts | 108° |
| 2026-05-07 20:49 | 39.40479 | -103.13938 | 31030 ft | 519 kts | 109° |
| 2026-05-07 20:49 | 39.39218 | -103.09569 | 31572 ft | 516 kts | 109° |
| 2026-05-07 20:50 | 39.38041 | -103.05498 | 32001 ft | 514 kts | 109° |
| 2026-05-07 20:50 | 39.36792 | -103.01179 | 32382 ft | 514 kts | 109° |
| 2026-05-07 20:50 | 39.35537 | -102.96851 | 32733 ft | 514 kts | 109° |
| 2026-05-07 20:50 | 39.34198 | -102.92642 | 33102 ft | 514 kts | 114° |
| 2026-05-07 20:51 | 39.32634 | -102.88495 | 33513 ft | 512 kts | 116° |
| 2026-05-07 20:51 | 39.31021 | -102.84470 | 33867 ft | 511 kts | 117° |
| 2026-05-07 20:51 | 39.29363 | -102.80401 | 34225 ft | 510 kts | 117° |
| 2026-05-07 20:51 | 39.27752 | -102.76425 | 34547 ft | 509 kts | 117° |
| 2026-05-07 20:52 | 39.26127 | -102.72365 | 34789 ft | 510 kts | 117° |
| 2026-05-07 20:52 | 39.24511 | -102.68289 | 35017 ft | 511 kts | 117° |
| 2026-05-07 20:52 | 39.22902 | -102.64204 | 35299 ft | 511 kts | 117° |
| 2026-05-07 20:52 | 39.21299 | -102.60130 | 35611 ft | 509 kts | 117° |
| 2026-05-07 20:53 | 39.19696 | -102.56064 | 35895 ft | 509 kts | 117° |
| 2026-05-07 20:53 | 39.18129 | -102.52097 | 36128 ft | 509 kts | 118° |
| 2026-05-07 20:53 | 39.16526 | -102.48045 | 36375 ft | 509 kts | 118° |
| 2026-05-07 20:53 | 39.14936 | -102.44037 | 36630 ft | 508 kts | 118° |
| 2026-05-07 20:54 | 39.13350 | -102.40046 | 36879 ft | 508 kts | 119° |
| 2026-05-07 20:54 | 39.11751 | -102.35973 | 37069 ft | 509 kts | 120° |
| 2026-05-07 20:54 | 39.10118 | -102.31936 | 37237 ft | 509 kts | 122° |
| 2026-05-07 20:54 | 39.08376 | -102.27967 | 37421 ft | 509 kts | 122° |
| 2026-05-07 20:55 | 39.06739 | -102.23952 | 37618 ft | 510 kts | 118° |
| 2026-05-07 20:55 | 39.05323 | -102.20142 | 37851 ft | 509 kts | 118° |
| 2026-05-07 20:55 | 39.03755 | -102.16065 | 38019 ft | 508 kts | 120° |
| 2026-05-07 20:55 | 39.02751 | -102.13543 | 38142 ft | 509 kts | 120° |
| 2026-05-07 20:56 | 39.01897 | -102.11430 | 38229 ft | 509 kts | 121° |
| 2026-05-07 20:56 | 39.00229 | -102.07348 | 38386 ft | 510 kts | 121° |
| 2026-05-07 20:56 | 38.98598 | -102.03368 | 38598 ft | 510 kts | 121° |
| 2026-05-07 20:56 | 38.97035 | -101.99543 | 38718 ft | 510 kts | 121° |
| 2026-05-07 20:57 | 38.95386 | -101.95494 | 38813 ft | 509 kts | 121° |
| 2026-05-07 20:57 | 38.92131 | -101.87480 | 38924 ft | 506 kts | 121° |
| 2026-05-07 20:58 | 38.88863 | -101.79455 | 38947 ft | 509 kts | 121° |
| 2026-05-07 20:58 | 38.85377 | -101.71582 | 38930 ft | 507 kts | 131° |
| 2026-05-07 20:59 | 38.80602 | -101.65101 | 38942 ft | 496 kts | 147° |
| 2026-05-07 20:59 | 38.75232 | -101.59554 | 38911 ft | 496 kts | 148° |
| 2026-05-07 21:00 | 38.69852 | -101.54008 | 38926 ft | 497 kts | 148° |
| 2026-05-07 21:00 | 38.65609 | -101.49573 | 38938 ft | 496 kts | 147° |
| 2026-05-07 21:01 | 38.62242 | -101.46035 | 38938 ft | 496 kts | 147° |
| 2026-05-07 21:01 | 38.56921 | -101.40445 | 38934 ft | 494 kts | 147° |
| 2026-05-07 21:02 | 38.51617 | -101.34887 | 38934 ft | 492 kts | 147° |
| 2026-05-07 21:02 | 38.46356 | -101.29390 | 38951 ft | 491 kts | 147° |
| 2026-05-07 21:03 | 38.41070 | -101.23879 | 38952 ft | 491 kts | 148° |
| 2026-05-07 21:03 | 38.35783 | -101.18375 | 38956 ft | 490 kts | 148° |
| 2026-05-07 21:04 | 38.30511 | -101.12877 | 38951 ft | 490 kts | 147° |
| 2026-05-07 21:04 | 38.25260 | -101.07353 | 38959 ft | 490 kts | 147° |
| 2026-05-07 21:05 | 38.20004 | -101.01826 | 38961 ft | 491 kts | 147° |
| 2026-05-07 21:05 | 38.14732 | -100.96300 | 38955 ft | 491 kts | 147° |
| 2026-05-07 21:06 | 38.09458 | -100.90786 | 38947 ft | 491 kts | 148° |
| 2026-05-07 21:06 | 38.04180 | -100.85278 | 38949 ft | 491 kts | 148° |
| 2026-05-07 21:07 | 37.98893 | -100.79771 | 38957 ft | 492 kts | 148° |
| 2026-05-07 21:07 | 37.93604 | -100.74271 | 38970 ft | 492 kts | 148° |
| 2026-05-07 21:08 | 37.88769 | -100.68031 | 38987 ft | 502 kts | 136° |
| 2026-05-07 21:08 | 37.84334 | -100.61162 | 38973 ft | 503 kts | 135° |
| 2026-05-07 21:09 | 37.79917 | -100.54292 | 38978 ft | 503 kts | 136° |
| 2026-05-07 21:09 | 37.75502 | -100.47528 | 38967 ft | 503 kts | 136° |
| 2026-05-07 21:10 | 37.71024 | -100.40735 | 38947 ft | 501 kts | 136° |
| 2026-05-07 21:10 | 37.66563 | -100.33993 | 38956 ft | 501 kts | 137° |
| 2026-05-07 21:11 | 37.62274 | -100.27525 | 38967 ft | 500 kts | 137° |
| 2026-05-07 21:11 | 37.55612 | -100.17495 | 38981 ft | 499 kts | 137° |
| 2026-05-07 21:12 | 37.51150 | -100.10792 | 38941 ft | 499 kts | 137° |
| 2026-05-07 21:12 | 37.46692 | -100.04109 | 38960 ft | 498 kts | 137° |
| 2026-05-07 21:13 | 37.42238 | -99.97446 | 38964 ft | 497 kts | 137° |
| 2026-05-07 21:13 | 37.37787 | -99.90801 | 38964 ft | 497 kts | 137° |
| 2026-05-07 21:14 | 37.33342 | -99.84181 | 38968 ft | 496 kts | 137° |
| 2026-05-07 21:14 | 37.28917 | -99.77601 | 38953 ft | 496 kts | 139° |
| 2026-05-07 21:15 | 37.24458 | -99.70984 | 38954 ft | 497 kts | 139° |
| 2026-05-07 21:15 | 37.19989 | -99.64368 | 38966 ft | 497 kts | 139° |
| 2026-05-07 21:16 | 37.15518 | -99.57760 | 38961 ft | 497 kts | 139° |
| 2026-05-07 21:16 | 37.11036 | -99.51150 | 38965 ft | 498 kts | 139° |
| 2026-05-07 21:17 | 37.06553 | -99.44549 | 38961 ft | 497 kts | 140° |
| 2026-05-07 21:17 | 37.02060 | -99.37949 | 38960 ft | 498 kts | 140° |
| 2026-05-07 21:18 | 36.97611 | -99.31428 | 38966 ft | 499 kts | 140° |
| 2026-05-07 21:18 | 36.93093 | -99.24818 | 38965 ft | 501 kts | 140° |
| 2026-05-07 21:19 | 36.88562 | -99.18200 | 38962 ft | 501 kts | 140° |
| 2026-05-07 21:19 | 36.84032 | -99.11595 | 38958 ft | 500 kts | 140° |
| 2026-05-07 21:20 | 36.79505 | -99.05008 | 38961 ft | 500 kts | 141° |
| 2026-05-07 21:20 | 36.74973 | -98.98430 | 38970 ft | 500 kts | 141° |
| 2026-05-07 21:21 | 36.70462 | -98.91896 | 38970 ft | 500 kts | 141° |
| 2026-05-07 21:21 | 36.65899 | -98.85297 | 38933 ft | 500 kts | 141° |
| 2026-05-07 21:22 | 36.61373 | -98.78765 | 38957 ft | 499 kts | 141° |
| 2026-05-07 21:22 | 36.56856 | -98.72260 | 38956 ft | 498 kts | 141° |
| 2026-05-07 21:23 | 36.52347 | -98.65778 | 38961 ft | 498 kts | 142° |
| 2026-05-07 21:23 | 36.47837 | -98.59308 | 38971 ft | 498 kts | 142° |
| 2026-05-07 21:24 | 36.43288 | -98.52796 | 38940 ft | 499 kts | 142° |
| 2026-05-07 21:24 | 36.38747 | -98.46306 | 38966 ft | 498 kts | 142° |
| 2026-05-07 21:25 | 36.34195 | -98.39813 | 38976 ft | 498 kts | 142° |
| 2026-05-07 21:26 | 36.33991 | -98.39524 | 38977 ft | 498 kts | 142° |
| 2026-05-07 21:27 | 36.31102 | -98.35410 | 38977 ft | 499 kts | 142° |
| 2026-05-07 21:27 | 36.28567 | -98.31805 | 38968 ft | 499 kts | 143° |
| 2026-05-07 21:28 | 36.24003 | -98.25323 | 38978 ft | 499 kts | 143° |
| 2026-05-07 21:28 | 36.19430 | -98.18841 | 38971 ft | 499 kts | 143° |
| 2026-05-07 21:29 | 36.14855 | -98.12368 | 38976 ft | 500 kts | 143° |
| 2026-05-07 21:29 | 36.12609 | -98.09196 | 38978 ft | 500 kts | 143° |
| 2026-05-07 21:30 | 36.08025 | -98.02730 | 38986 ft | 500 kts | 143° |
| 2026-05-07 21:30 | 36.03431 | -97.96262 | 38998 ft | 500 kts | 143° |
| 2026-05-07 21:31 | 35.98837 | -97.89807 | 38977 ft | 501 kts | 143° |
| 2026-05-07 21:31 | 35.94237 | -97.83354 | 39001 ft | 500 kts | 144° |
| 2026-05-07 21:32 | 35.89640 | -97.76919 | 39003 ft | 500 kts | 144° |
| 2026-05-07 21:32 | 35.85810 | -97.71567 | 39024 ft | 500 kts | 144° |
| 2026-05-07 21:33 | 35.82412 | -97.66827 | 39022 ft | 500 kts | 144° |
| 2026-05-07 21:33 | 35.78576 | -97.61483 | 39030 ft | 501 kts | 144° |
| 2026-05-07 21:34 | 35.75253 | -97.56860 | 39026 ft | 501 kts | 144° |
| 2026-05-07 21:35 | 35.72188 | -97.52602 | 39029 ft | 502 kts | 144° |
| 2026-05-07 21:35 | 35.69170 | -97.48414 | 39039 ft | 502 kts | 144° |
| 2026-05-07 21:36 | 35.68414 | -97.47366 | 39039 ft | 502 kts | 144° |
| 2026-05-07 21:37 | 35.68209 | -97.47082 | 39038 ft | 502 kts | 144° |
| 2026-05-07 21:38 | 35.66186 | -97.44280 | 39032 ft | 503 kts | 144° |
| 2026-05-07 21:39 | 35.61540 | -97.37851 | 39042 ft | 503 kts | 144° |
| 2026-05-07 21:39 | 35.56995 | -97.31572 | 39042 ft | 503 kts | 144° |
| 2026-05-07 21:40 | 35.52872 | -97.25886 | 38999 ft | 503 kts | 144° |
| 2026-05-07 21:40 | 35.48224 | -97.19486 | 39042 ft | 502 kts | 144° |
| 2026-05-07 21:41 | 35.43580 | -97.13107 | 39049 ft | 502 kts | 145° |
| 2026-05-07 21:41 | 35.38916 | -97.06714 | 39047 ft | 502 kts | 145° |
| 2026-05-07 21:42 | 35.34968 | -97.01312 | 39048 ft | 502 kts | 145° |
| 2026-05-07 21:42 | 35.30343 | -96.94992 | 39048 ft | 501 kts | 145° |
| 2026-05-07 21:43 | 35.25689 | -96.88642 | 39044 ft | 500 kts | 145° |
| 2026-05-07 21:43 | 35.21031 | -96.82303 | 39045 ft | 501 kts | 145° |
| 2026-05-07 21:44 | 35.16371 | -96.75972 | 39042 ft | 501 kts | 145° |
| 2026-05-07 21:44 | 35.11854 | -96.69847 | 39058 ft | 502 kts | 145° |
| 2026-05-07 21:45 | 35.07176 | -96.63514 | 39058 ft | 503 kts | 145° |
| 2026-05-07 21:45 | 35.02488 | -96.57178 | 39052 ft | 503 kts | 145° |
| 2026-05-07 21:46 | 34.97786 | -96.50837 | 39045 ft | 504 kts | 145° |
| 2026-05-07 21:46 | 34.93087 | -96.44511 | 39051 ft | 505 kts | 145° |
| 2026-05-07 21:47 | 34.88371 | -96.38175 | 39057 ft | 505 kts | 145° |
| 2026-05-07 21:47 | 34.83634 | -96.31820 | 39049 ft | 506 kts | 145° |
| 2026-05-07 21:48 | 34.78904 | -96.25485 | 39051 ft | 506 kts | 145° |
| 2026-05-07 21:48 | 34.74154 | -96.19137 | 39051 ft | 507 kts | 145° |
| 2026-05-07 21:49 | 34.69398 | -96.12792 | 39058 ft | 507 kts | 145° |
| 2026-05-07 21:49 | 34.64642 | -96.06461 | 39054 ft | 508 kts | 145° |
| 2026-05-07 21:50 | 34.59917 | -96.00181 | 39052 ft | 508 kts | 145° |
| 2026-05-07 21:50 | 34.55151 | -95.93855 | 39051 ft | 507 kts | 145° |
| 2026-05-07 21:51 | 34.50394 | -95.87554 | 39050 ft | 506 kts | 145° |
| 2026-05-07 21:51 | 34.45632 | -95.81259 | 39063 ft | 506 kts | 145° |
| 2026-05-07 21:52 | 34.40874 | -95.74982 | 39056 ft | 506 kts | 145° |
| 2026-05-07 21:52 | 34.36121 | -95.68723 | 39058 ft | 505 kts | 145° |
| 2026-05-07 21:53 | 34.31331 | -95.62425 | 39048 ft | 504 kts | 145° |
| 2026-05-07 21:53 | 34.26578 | -95.56189 | 39051 ft | 504 kts | 145° |
| 2026-05-07 21:54 | 34.21859 | -95.50008 | 39057 ft | 504 kts | 145° |
| 2026-05-07 21:54 | 34.17094 | -95.43777 | 39058 ft | 504 kts | 145° |
| 2026-05-07 21:55 | 34.12332 | -95.37562 | 39056 ft | 504 kts | 145° |
| 2026-05-07 21:55 | 34.07569 | -95.31356 | 39028 ft | 504 kts | 145° |
| 2026-05-07 21:56 | 34.02806 | -95.25160 | 39046 ft | 504 kts | 145° |
| 2026-05-07 21:56 | 33.98034 | -95.18964 | 39062 ft | 505 kts | 145° |
| 2026-05-07 21:57 | 33.93246 | -95.12760 | 39057 ft | 505 kts | 145° |
| 2026-05-07 21:57 | 33.88462 | -95.06572 | 39061 ft | 506 kts | 145° |
| 2026-05-07 21:58 | 33.83652 | -95.00360 | 39042 ft | 506 kts | 145° |
| 2026-05-07 21:58 | 33.78855 | -94.94173 | 39048 ft | 506 kts | 145° |
| 2026-05-07 21:59 | 33.74053 | -94.87994 | 39064 ft | 506 kts | 145° |
| 2026-05-07 21:59 | 33.69279 | -94.81861 | 39073 ft | 506 kts | 145° |
| 2026-05-07 22:00 | 33.64474 | -94.75699 | 39073 ft | 506 kts | 145° |
| 2026-05-07 22:00 | 33.59659 | -94.69536 | 39067 ft | 506 kts | 145° |
| 2026-05-07 22:01 | 33.54845 | -94.63384 | 39069 ft | 506 kts | 145° |
| 2026-05-07 22:01 | 33.50030 | -94.57240 | 39063 ft | 505 kts | 145° |
| 2026-05-07 22:02 | 33.45210 | -94.51102 | 39072 ft | 505 kts | 145° |
| 2026-05-07 22:02 | 33.40395 | -94.44982 | 39073 ft | 505 kts | 145° |
| 2026-05-07 22:03 | 33.35565 | -94.38853 | 39076 ft | 505 kts | 145° |
| 2026-05-07 22:03 | 33.30737 | -94.32737 | 39070 ft | 506 kts | 145° |
| 2026-05-07 22:04 | 33.25909 | -94.26631 | 39069 ft | 506 kts | 145° |
| 2026-05-07 22:04 | 33.21072 | -94.20524 | 39068 ft | 506 kts | 145° |
| 2026-05-07 22:05 | 33.16229 | -94.14421 | 39072 ft | 506 kts | 145° |
| 2026-05-07 22:05 | 33.11412 | -94.08360 | 39073 ft | 506 kts | 145° |
| 2026-05-07 22:06 | 33.06562 | -94.02267 | 39065 ft | 505 kts | 145° |
| 2026-05-07 22:06 | 33.01808 | -93.96305 | 39067 ft | 505 kts | 145° |
| 2026-05-07 22:07 | 32.96965 | -93.90243 | 39073 ft | 505 kts | 145° |
| 2026-05-07 22:07 | 32.92120 | -93.84189 | 39078 ft | 505 kts | 146° |
| 2026-05-07 22:08 | 32.87273 | -93.78142 | 39083 ft | 505 kts | 146° |
| 2026-05-07 22:08 | 32.82416 | -93.72095 | 39038 ft | 505 kts | 145° |
| 2026-05-07 22:09 | 32.77573 | -93.66071 | 39060 ft | 504 kts | 146° |
| 2026-05-07 22:09 | 32.72728 | -93.60056 | 39064 ft | 503 kts | 146° |
| 2026-05-07 22:10 | 32.67906 | -93.54080 | 39073 ft | 501 kts | 146° |
| 2026-05-07 22:10 | 32.63075 | -93.48104 | 39073 ft | 500 kts | 146° |
| 2026-05-07 22:11 | 32.58266 | -93.42165 | 39076 ft | 499 kts | 146° |
| 2026-05-07 22:11 | 32.53461 | -93.36241 | 39073 ft | 498 kts | 145° |
| 2026-05-07 22:12 | 32.48683 | -93.30360 | 39070 ft | 498 kts | 145° |
| 2026-05-07 22:12 | 32.43841 | -93.24412 | 39081 ft | 499 kts | 145° |
| 2026-05-07 22:13 | 32.39052 | -93.18538 | 39076 ft | 500 kts | 145° |
| 2026-05-07 22:13 | 32.34216 | -93.12614 | 39079 ft | 501 kts | 145° |
| 2026-05-07 22:14 | 32.29409 | -93.06735 | 39053 ft | 501 kts | 145° |
| 2026-05-07 22:14 | 32.24555 | -93.00808 | 39059 ft | 502 kts | 145° |
| 2026-05-07 22:15 | 32.19697 | -92.94885 | 39076 ft | 502 kts | 145° |
| 2026-05-07 22:15 | 32.14833 | -92.88965 | 39063 ft | 503 kts | 145° |
| 2026-05-07 22:16 | 32.09950 | -92.83031 | 39075 ft | 504 kts | 145° |
| 2026-05-07 22:16 | 32.05058 | -92.77096 | 39059 ft | 504 kts | 145° |
| 2026-05-07 22:17 | 32.00183 | -92.71188 | 39052 ft | 503 kts | 145° |
| 2026-05-07 22:17 | 31.95193 | -92.65483 | 39050 ft | 493 kts | 151° |
| 2026-05-07 22:18 | 31.87242 | -92.58029 | 39063 ft | 488 kts | 154° |
| 2026-05-07 22:19 | 31.81890 | -92.53090 | 39064 ft | 489 kts | 153° |
| 2026-05-07 22:19 | 31.76563 | -92.48100 | 39038 ft | 490 kts | 153° |
| 2026-05-07 22:20 | 31.71250 | -92.43089 | 39059 ft | 490 kts | 153° |
| 2026-05-07 22:20 | 31.66831 | -92.38924 | 39066 ft | 490 kts | 153° |
| 2026-05-07 22:21 | 31.61507 | -92.33915 | 39050 ft | 490 kts | 153° |
| 2026-05-07 22:21 | 31.56189 | -92.28921 | 39043 ft | 490 kts | 153° |
| 2026-05-07 22:22 | 31.50853 | -92.23921 | 39039 ft | 491 kts | 153° |
| 2026-05-07 22:22 | 31.45521 | -92.18930 | 39035 ft | 490 kts | 153° |
| 2026-05-07 22:23 | 31.40194 | -92.13952 | 39040 ft | 490 kts | 153° |
| 2026-05-07 22:23 | 31.34863 | -92.08977 | 39043 ft | 490 kts | 153° |
| 2026-05-07 22:24 | 31.29537 | -92.04015 | 39058 ft | 490 kts | 153° |
| 2026-05-07 22:24 | 31.24240 | -91.99088 | 39054 ft | 489 kts | 153° |
| 2026-05-07 22:25 | 31.18919 | -91.94144 | 39052 ft | 488 kts | 153° |
| 2026-05-07 22:25 | 31.13602 | -91.89212 | 39037 ft | 488 kts | 153° |
| 2026-05-07 22:26 | 31.08288 | -91.84291 | 39047 ft | 488 kts | 153° |
| 2026-05-07 22:26 | 31.02973 | -91.79376 | 39039 ft | 488 kts | 153° |
| 2026-05-07 22:27 | 30.97661 | -91.74471 | 39044 ft | 488 kts | 153° |
| 2026-05-07 22:27 | 30.92368 | -91.69590 | 39015 ft | 488 kts | 153° |
| 2026-05-07 22:27 | 30.89689 | -91.67126 | 38585 ft | 494 kts | 153° |
| 2026-05-07 22:28 | 30.86987 | -91.64644 | 37971 ft | 494 kts | 152° |
| 2026-05-07 22:28 | 30.84308 | -91.62176 | 37354 ft | 492 kts | 152° |
| 2026-05-07 22:28 | 30.81625 | -91.59705 | 36718 ft | 490 kts | 152° |
| 2026-05-07 22:28 | 30.78954 | -91.57248 | 36086 ft | 489 kts | 152° |
| 2026-05-07 22:29 | 30.76287 | -91.54800 | 35401 ft | 489 kts | 152° |
| 2026-05-07 22:29 | 30.73608 | -91.52344 | 34672 ft | 490 kts | 152° |
| 2026-05-07 22:29 | 30.70927 | -91.49891 | 33879 ft | 492 kts | 151° |
| 2026-05-07 22:29 | 30.68227 | -91.47421 | 33013 ft | 494 kts | 151° |
| 2026-05-07 22:30 | 30.65521 | -91.44945 | 32172 ft | 495 kts | 151° |
| 2026-05-07 22:30 | 30.62814 | -91.42469 | 31314 ft | 497 kts | 151° |
| 2026-05-07 22:30 | 30.60091 | -91.39981 | 30408 ft | 499 kts | 150° |
| 2026-05-07 22:30 | 30.57353 | -91.37481 | 29495 ft | 500 kts | 150° |
| 2026-05-07 22:31 | 30.54636 | -91.34994 | 28790 ft | 494 kts | 150° |
| 2026-05-07 22:31 | 30.51953 | -91.32542 | 28087 ft | 489 kts | 150° |
| 2026-05-07 22:31 | 30.49295 | -91.30119 | 27416 ft | 483 kts | 150° |
| 2026-05-07 22:31 | 30.46667 | -91.27714 | 26732 ft | 479 kts | 149° |
| 2026-05-07 22:32 | 30.44076 | -91.25309 | 26044 ft | 476 kts | 149° |
| 2026-05-07 22:32 | 30.41512 | -91.22914 | 25368 ft | 472 kts | 149° |
| 2026-05-07 22:32 | 30.38999 | -91.20565 | 24675 ft | 469 kts | 149° |
| 2026-05-07 22:32 | 30.36469 | -91.18204 | 24018 ft | 465 kts | 149° |
| 2026-05-07 22:33 | 30.33926 | -91.15836 | 23292 ft | 462 kts | 148° |
| 2026-05-07 22:33 | 30.31466 | -91.13551 | 22549 ft | 457 kts | 148° |
| 2026-05-07 22:33 | 30.28998 | -91.11260 | 21878 ft | 452 kts | 148° |
| 2026-05-07 22:33 | 30.26560 | -91.08999 | 21210 ft | 447 kts | 148° |
| 2026-05-07 22:34 | 30.24148 | -91.06764 | 20551 ft | 442 kts | 149° |
| 2026-05-07 22:34 | 30.21762 | -91.04555 | 19964 ft | 436 kts | 149° |
| 2026-05-07 22:34 | 30.19451 | -91.02411 | 19769 ft | 419 kts | 149° |
| 2026-05-07 22:34 | 30.17214 | -91.00338 | 19583 ft | 405 kts | 149° |
| 2026-05-07 22:35 | 30.15053 | -90.98338 | 19410 ft | 391 kts | 149° |
| 2026-05-07 22:35 | 30.13049 | -90.96259 | 19215 ft | 390 kts | 136° |
| 2026-05-07 22:35 | 30.11689 | -90.93534 | 18883 ft | 398 kts | 116° |
| 2026-05-07 22:35 | 30.11153 | -90.90423 | 18421 ft | 407 kts | 100° |
| 2026-05-07 22:36 | 30.10907 | -90.87161 | 17858 ft | 407 kts | 98° |
| 2026-05-07 22:36 | 30.10702 | -90.83934 | 17405 ft | 398 kts | 98° |
| 2026-05-07 22:36 | 30.10494 | -90.80789 | 16960 ft | 387 kts | 98° |
| 2026-05-07 22:36 | 30.10271 | -90.77735 | 16537 ft | 377 kts | 98° |
| 2026-05-07 22:37 | 30.10038 | -90.74756 | 16123 ft | 368 kts | 98° |
| 2026-05-07 22:37 | 30.09805 | -90.71850 | 15726 ft | 359 kts | 98° |
| 2026-05-07 22:37 | 30.09525 | -90.69029 | 15303 ft | 350 kts | 104° |
| 2026-05-07 22:37 | 30.08979 | -90.66314 | 14810 ft | 343 kts | 109° |
| 2026-05-07 22:38 | 30.08328 | -90.63690 | 14390 ft | 336 kts | 110° |
| 2026-05-07 22:38 | 30.07670 | -90.61139 | 14014 ft | 328 kts | 110° |
| 2026-05-07 22:38 | 30.07033 | -90.58642 | 13613 ft | 321 kts | 110° |
| 2026-05-07 22:38 | 30.06416 | -90.56185 | 13200 ft | 314 kts | 109° |
| 2026-05-07 22:39 | 30.05822 | -90.53775 | 12835 ft | 313 kts | 109° |
| 2026-05-07 22:39 | 30.05222 | -90.51325 | 12345 ft | 324 kts | 108° |
| 2026-05-07 22:39 | 30.04611 | -90.48809 | 11700 ft | 327 kts | 108° |
| 2026-05-07 22:39 | 30.04001 | -90.46279 | 11084 ft | 326 kts | 107° |
| 2026-05-07 22:40 | 30.03397 | -90.43763 | 10484 ft | 325 kts | 107° |
| 2026-05-07 22:40 | 30.02797 | -90.41268 | 9970 ft | 320 kts | 107° |
| 2026-05-07 22:40 | 30.02381 | -90.39527 | 9577 ft | 317 kts | 107° |
| 2026-05-07 22:40 | 30.01799 | -90.37093 | 9022 ft | 312 kts | 106° |
| 2026-05-07 22:41 | 30.01229 | -90.34702 | 8522 ft | 304 kts | 106° |
| 2026-05-07 22:41 | 30.00674 | -90.32390 | 7981 ft | 295 kts | 106° |
| 2026-05-07 22:41 | 30.00131 | -90.30138 | 7421 ft | 289 kts | 107° |
| 2026-05-07 22:41 | 29.99592 | -90.27901 | 6883 ft | 289 kts | 107° |
| 2026-05-07 22:42 | 29.99052 | -90.25668 | 6347 ft | 289 kts | 106° |
| 2026-05-07 22:42 | 29.98521 | -90.23449 | 5788 ft | 286 kts | 107° |
| 2026-05-07 22:42 | 29.97963 | -90.21239 | 5208 ft | 286 kts | 106° |
| 2026-05-07 22:42 | 29.97443 | -90.19063 | 4673 ft | 284 kts | 105° |
| 2026-05-07 22:43 | 29.96925 | -90.16898 | 4395 ft | 272 kts | 105° |
| 2026-05-07 22:43 | 29.96433 | -90.14841 | 4131 ft | 261 kts | 105° |
| 2026-05-07 22:43 | 29.95954 | -90.12868 | 3876 ft | 250 kts | 105° |
| 2026-05-07 22:43 | 29.95496 | -90.10970 | 3624 ft | 241 kts | 104° |
| 2026-05-07 22:44 | 29.95071 | -90.09158 | 3383 ft | 233 kts | 105° |
| 2026-05-07 22:44 | 29.94637 | -90.07381 | 3358 ft | 224 kts | 104° |
| 2026-05-07 22:44 | 29.94227 | -90.05675 | 3356 ft | 226 kts | 104° |
| 2026-05-07 22:44 | 29.93728 | -90.03932 | 3348 ft | 231 kts | 118° |
| 2026-05-07 22:45 | 29.92664 | -90.02572 | 3346 ft | 230 kts | 144° |
| 2026-05-07 22:45 | 29.91234 | -90.01792 | 3344 ft | 227 kts | 168° |
| 2026-05-07 22:45 | 29.89723 | -90.01758 | 3338 ft | 210 kts | 193° |
| 2026-05-07 22:45 | 29.88430 | -90.02382 | 3330 ft | 199 kts | 217° |
| 2026-05-07 22:46 | 29.87470 | -90.03486 | 3326 ft | 195 kts | 238° |
| 2026-05-07 22:46 | 29.86894 | -90.04944 | 3364 ft | 205 kts | 256° |
| 2026-05-07 22:46 | 29.86735 | -90.06579 | 3352 ft | 206 kts | 281° |
| 2026-05-07 22:46 | 29.87450 | -90.07916 | 3324 ft | 199 kts | 328° |
| 2026-05-07 22:47 | 29.88675 | -90.08634 | 3354 ft | 197 kts | 332° |
| 2026-05-07 22:47 | 29.89867 | -90.09415 | 3307 ft | 200 kts | 330° |
| 2026-05-07 22:47 | 29.91086 | -90.10225 | 3037 ft | 200 kts | 330° |
| 2026-05-07 22:47 | 29.92245 | -90.11034 | 2878 ft | 186 kts | 328° |
| 2026-05-07 22:48 | 29.93278 | -90.11809 | 2863 ft | 172 kts | 328° |
| 2026-05-07 22:48 | 29.94323 | -90.12485 | 2876 ft | 176 kts | 340° |
| 2026-05-07 22:48 | 29.95549 | -90.12736 | 2890 ft | 180 kts | 349° |
| 2026-05-07 22:48 | 29.96560 | -90.13513 | 2672 ft | 178 kts | 297° |
| 2026-05-07 22:49 | 29.96727 | -90.14874 | 2418 ft | 176 kts | 258° |
| 2026-05-07 22:49 | 29.96414 | -90.16249 | 2050 ft | 174 kts | 272° |
| 2026-05-07 22:49 | 29.96634 | -90.17575 | 1687 ft | 168 kts | 293° |
| 2026-05-07 22:49 | 29.97026 | -90.18817 | 1426 ft | 157 kts | 292° |
| 2026-05-07 22:50 | 29.97439 | -90.19897 | 1287 ft | 141 kts | 300° |
| 2026-05-07 22:50 | 29.97865 | -90.20903 | 1045 ft | 139 kts | 297° |
| 2026-05-07 22:50 | 29.98171 | -90.21962 | 882 ft | 143 kts | 288° |
| 2026-05-07 22:50 | 29.98425 | -90.23069 | 672 ft | 142 kts | 288° |
| 2026-05-07 22:51 | 29.98693 | -90.24158 | 389 ft | 140 kts | 287° |
| 2026-05-07 22:51 | 29.98952 | -90.25236 | 90 ft | 138 kts | 287° |
| 2026-05-07 22:51 | 29.99192 | -90.26218 | 6 ft | 122 kts | 284° |
| 2026-05-07 22:51 | 29.99380 | -90.26999 | 7 ft | 80 kts | 285° |
| 2026-05-07 22:52 | 29.99496 | -90.27473 | 3 ft | 48 kts | 287° |
| 2026-05-07 22:52 | 29.99575 | -90.27705 | -1 ft | 19 kts | 344° |
| 2026-05-07 22:52 | 29.99700 | -90.27671 | 2 ft | 18 kts | 17° |
| 2026-05-07 22:52 | 29.99742 | -90.27559 | 3 ft | 17 kts | 105° |
| 2026-05-07 22:53 | 29.99711 | -90.27428 | 3 ft | 18 kts | 105° |
| 2026-05-07 22:53 | 29.99677 | -90.27284 | 6 ft | 19 kts | 105° |
| 2026-05-07 22:53 | 29.99645 | -90.27150 | 7 ft | 19 kts | 105° |
| 2026-05-07 22:53 | 29.99610 | -90.27003 | 9 ft | 19 kts | 105° |
| 2026-05-07 22:54 | 29.99576 | -90.26862 | 11 ft | 19 kts | 105° |
| 2026-05-07 22:54 | 29.99539 | -90.26710 | 9 ft | 21 kts | 105° |
| 2026-05-07 22:54 | 29.99499 | -90.26546 | 10 ft | 22 kts | 105° |
| 2026-05-07 22:54 | 29.99455 | -90.26367 | 7 ft | 25 kts | 106° |
| 2026-05-07 22:55 | 29.99409 | -90.26176 | 6 ft | 24 kts | 105° |
| 2026-05-07 22:55 | 29.99366 | -90.25996 | 2 ft | 21 kts | 105° |
| 2026-05-07 22:55 | 29.99338 | -90.25879 | 2 ft | 11 kts | 94° |
| 2026-05-07 22:55 | 29.99336 | -90.25824 | 3 ft | 7 kts | 126° |
| 2026-05-07 22:56 | 29.99335 | -90.25773 | 6 ft | 5 kts | 77° |
| 2026-05-07 22:56 | 29.99338 | -90.25760 | 5 ft | 0 kts | 78° |